Time;durP1;ratioP1;P1;durP2;ratioP2;P2;SDS_P1;SDS_P2;PMS_P1;PMS_P2;Temp;Humidity;BMP_temperature;BMP_pressure;BME280_temperature;BME280_humidity;BME280_pressure;Samples;Min_cycle;Max_cycle;Signal;HPM_P1;HPM_P2
2021/04/11 00:03:41;;;;;;;1.50;1.40;;;;;;;;;;10369389;28;21201;-83
2021/04/11 00:08:43;;;;;;;1.50;1.40;;;;;;;;;;10369228;28;20703;-83
2021/04/11 00:13:45;;;;;;;1.70;1.60;;;;;;;;;;10370086;28;20212;-84
2021/04/11 00:18:48;;;;;;;1.80;1.70;;;;;;;;;;10371576;28;20212;-84
2021/04/11 00:23:50;;;;;;;1.77;1.67;;;;;;;;;;10371847;28;20246;-84
2021/04/11 00:28:52;;;;;;;2.47;1.77;;;;;;;;;;10366939;28;20213;-84
2021/04/11 00:33:55;;;;;;;2.13;1.73;;;;;;;;;;10371310;28;20220;-85
2021/04/11 00:38:57;;;;;;;1.63;1.47;;;;;;;;;;10368520;28;20220;-83
2021/04/11 00:44:01;;;;;;;1.77;1.67;;;;;;;;;;10375741;28;20251;-84
2021/04/11 00:49:03;;;;;;;1.47;1.37;;;;;;;;;;10374960;28;20227;-83
2021/04/11 00:54:06;;;;;;;1.53;1.43;;;;;;;;;;10379138;28;20682;-83
2021/04/11 00:59:09;;;;;;;1.40;1.30;;;;;;;;;;10378048;28;20234;-85
2021/04/11 01:04:13;;;;;;;1.43;1.20;;;;;;;;;;10388778;28;20239;-84
2021/04/11 01:09:17;;;;;;;1.60;1.40;;;;;;;;;;10382545;28;20218;-84
2021/04/11 01:14:20;;;;;;;1.30;1.20;;;;;;;;;;10375271;28;20212;-83
2021/04/11 01:19:25;;;;;;;1.33;1.23;;;;;;;;;;10374832;28;20456;-82
2021/04/11 01:24:36;;;;;;;1.50;1.27;;;;;;;;;;10374020;28;20243;-84
2021/04/11 01:29:39;;;;;;;1.17;1.10;;;;;;;;;;10369811;28;20235;-84
2021/04/11 01:34:42;;;;;;;2.20;1.10;;;;;;;;;;10374052;28;20205;-83
2021/04/11 01:39:46;;;;;;;1.40;1.23;;;;;;;;;;10376066;28;20212;-84
2021/04/11 01:44:49;;;;;;;1.10;1.00;;;;;;;;;;10378852;28;20240;-84
2021/04/11 01:49:51;;;;;;;1.20;1.10;;;;;;;;;;10381957;28;20220;-84
2021/04/11 01:54:55;;;;;;;1.47;1.20;;;;;;;;;;10380815;28;20371;-84
2021/04/11 01:59:59;;;;;;;1.10;1.00;;;;;;;;;;10374298;28;20244;-86
2021/04/11 02:05:01;;;;;;;1.43;1.10;;;;;;;;;;10371528;28;20780;-86
2021/04/11 02:10:05;;;;;;;1.40;1.00;;;;;;;;;;10379264;28;20227;-83
2021/04/11 02:15:08;;;;;;;1.10;1.00;;;;;;;;;;10372377;28;20209;-83
2021/04/11 02:20:11;;;;;;;1.20;1.00;;;;;;;;;;10373889;28;20737;-83
2021/04/11 02:25:15;;;;;;;1.20;1.00;;;;;;;;;;10377383;28;20240;-85
2021/04/11 02:30:18;;;;;;;1.30;1.20;;;;;;;;;;10371645;28;20216;-84
2021/04/11 02:35:22;;;;;;;2.47;1.00;;;;;;;;;;10375040;28;20307;-84
2021/04/11 02:40:26;;;;;;;1.53;1.10;;;;;;;;;;10372189;28;20303;-85
2021/04/11 02:45:30;;;;;;;1.10;1.00;;;;;;;;;;10374310;28;20704;-84
2021/04/11 02:50:33;;;;;;;2.30;1.20;;;;;;;;;;10374548;28;20209;-83
2021/04/11 02:55:38;;;;;;;2.40;1.30;;;;;;;;;;10374726;28;20764;-84
2021/04/11 03:00:43;;;;;;;2.57;1.40;;;;;;;;;;10370660;28;20228;-84
2021/04/11 03:05:45;;;;;;;2.80;1.40;;;;;;;;;;10375329;28;20626;-85
2021/04/11 03:10:54;;;;;;;2.10;1.20;;;;;;;;;;10373462;28;20208;-84
2021/04/11 03:15:57;;;;;;;2.03;1.20;;;;;;;;;;10355977;28;20220;-83
2021/04/11 03:20:59;;;;;;;2.80;1.40;;;;;;;;;;10373309;28;20303;-84
2021/04/11 03:26:04;;;;;;;1.47;0.93;;;;;;;;;;10374031;28;20236;-84
2021/04/11 03:31:09;;;;;;;2.40;1.20;;;;;;;;;;10372567;28;20362;-83
2021/04/11 03:36:13;;;;;;;1.33;1.00;;;;;;;;;;10376580;28;20218;-83
2021/04/11 03:41:16;;;;;;;1.60;1.20;;;;;;;;;;10371049;28;20840;-83
2021/04/11 03:46:21;;;;;;;1.77;1.03;;;;;;;;;;10364669;28;20232;-84
2021/04/11 03:51:26;;;;;;;1.63;1.00;;;;;;;;;;10375669;28;20367;-84
2021/04/11 03:56:33;;;;;;;2.23;1.00;;;;;;;;;;10368602;28;20213;-84
2021/04/11 04:01:39;;;;;;;1.63;0.90;;;;;;;;;;10373354;28;20559;-84
2021/04/11 04:06:46;;;;;;;2.50;1.10;;;;;;;;;;10372738;28;20323;-84
2021/04/11 04:11:58;;;;;;;2.77;1.23;;;;;;;;;;10371469;28;20684;-84
2021/04/11 04:17:06;;;;;;;2.90;1.10;;;;;;;;;;10365285;28;20307;-84
2021/04/11 04:22:18;;;;;;;1.20;1.10;;;;;;;;;;10371647;28;20211;-83
2021/04/11 04:27:32;;;;;;;2.57;1.30;;;;;;;;;;10376249;28;20368;-84
2021/04/11 04:32:37;;;;;;;2.73;1.20;;;;;;;;;;10348910;28;20584;-83
2021/04/11 04:37:47;;;;;;;1.87;1.20;;;;;;;;;;10377180;28;20217;-84
2021/04/11 04:42:51;;;;;;;2.80;1.37;;;;;;;;;;10376053;28;20236;-78
2021/04/11 04:47:55;;;;;;;2.43;1.40;;;;;;;;;;10383340;28;20822;-79
2021/04/11 04:53:03;;;;;;;2.97;1.30;;;;;;;;;;10373255;28;20702;-78
2021/04/11 04:58:09;;;;;;;5.63;1.57;;;;;;;;;;10380059;28;20221;-79
2021/04/11 05:03:12;;;;;;;3.70;1.50;;;;;;;;;;10384501;28;20787;-84
2021/04/11 05:08:19;;;;;;;3.63;1.50;;;;;;;;;;10394653;28;20626;-83
2021/04/11 05:13:23;;;;;;;2.63;1.40;;;;;;;;;;10358527;28;20223;-84
2021/04/11 05:18:26;;;;;;;3.50;1.60;;;;;;;;;;10375794;28;20222;-84
2021/04/11 05:23:31;;;;;;;3.10;1.47;;;;;;;;;;10379074;28;20236;-83
2021/04/11 05:28:38;;;;;;;3.80;1.50;;;;;;;;;;10374074;28;20226;-84
2021/04/11 05:33:41;;;;;;;2.70;1.20;;;;;;;;;;10373701;28;20216;-83
2021/04/11 05:38:50;;;;;;;6.37;2.10;;;;;;;;;;10374036;28;20685;-86
2021/04/11 05:43:57;;;;;;;5.43;1.73;;;;;;;;;;10378750;28;20262;-85
2021/04/11 05:49:01;;;;;;;3.93;2.00;;;;;;;;;;10383183;28;20226;-84
2021/04/11 05:54:05;;;;;;;5.03;1.90;;;;;;;;;;10377367;28;20228;-85
2021/04/11 05:59:10;;;;;;;4.97;1.90;;;;;;;;;;10374466;28;20228;-85
2021/04/11 06:04:14;;;;;;;5.33;1.97;;;;;;;;;;10371814;28;20665;-84
2021/04/11 06:09:20;;;;;;;3.57;1.63;;;;;;;;;;10369730;28;20244;-84
2021/04/11 06:14:26;;;;;;;4.23;1.90;;;;;;;;;;10372049;28;20352;-84
2021/04/11 06:19:28;;;;;;;2.57;1.40;;;;;;;;;;10375620;28;20216;-85
2021/04/11 06:24:43;;;;;;;3.90;1.63;;;;;;;;;;10378856;28;20240;-83
2021/04/11 06:29:50;;;;;;;3.67;1.70;;;;;;;;;;10377204;28;20208;-83
2021/04/11 06:34:55;;;;;;;5.13;1.90;;;;;;;;;;10371955;28;20215;-83
2021/04/11 06:39:57;;;;;;;5.50;1.77;;;;;;;;;;10375260;28;20498;-84
2021/04/11 06:45:13;;;;;;;3.30;1.70;;;;;;;;;;10373147;28;20473;-79
2021/04/11 06:50:20;;;;;;;3.63;2.00;;;;;;;;;;10371326;28;20215;-78
2021/04/11 06:55:44;;;;;;;5.03;1.60;;;;;;;;;;10362330;28;20908;-84
2021/04/11 07:00:57;;;;;;;3.87;1.57;;;;;;;;;;10338899;28;20377;-80
2021/04/11 07:06:31;;;;;;;8.73;1.80;;;;;;;;;;10373268;28;20279;-81
2021/04/11 07:11:52;;;;;;;8.07;1.70;;;;;;;;;;10373575;28;20226;-82
2021/04/11 07:17:13;;;;;;;5.70;1.90;;;;;;;;;;10373824;28;20567;-84
2021/04/11 07:22:33;;;;;;;5.27;2.10;;;;;;;;;;10372279;28;20293;-87
2021/04/11 07:27:43;;;;;;;7.33;2.60;;;;;;;;;;10372586;28;20262;-86
2021/04/11 07:33:00;;;;;;;6.77;2.50;;;;;;;;;;10375242;28;21138;-82
2021/04/11 07:38:29;;;;;;;4.27;1.80;;;;;;;;;;10368900;28;20223;-82
2021/04/11 07:43:48;;;;;;;5.53;1.80;;;;;;;;;;10369563;28;20608;-85
2021/04/11 07:49:13;;;;;;;5.90;2.10;;;;;;;;;;10367980;28;20461;-90
2021/04/11 07:54:34;;;;;;;3.13;1.67;;;;;;;;;;10374196;28;20223;-89
2021/04/11 07:59:41;;;;;;;4.30;1.70;;;;;;;;;;10371417;28;20714;-80
2021/04/11 08:04:59;;;;;;;3.20;1.37;;;;;;;;;;10367536;28;20747;-80
2021/04/11 08:10:08;;;;;;;6.13;1.70;;;;;;;;;;10367203;28;20362;-78
2021/04/11 08:15:14;;;;;;;6.03;1.50;;;;;;;;;;10368732;28;20223;-79
2021/04/11 08:20:34;;;;;;;3.50;1.50;;;;;;;;;;10367640;28;20211;-80
2021/04/11 08:25:39;;;;;;;3.73;1.50;;;;;;;;;;10361050;28;20236;-84
2021/04/11 08:30:56;;;;;;;3.13;1.40;;;;;;;;;;10361916;28;20407;-82
2021/04/11 08:36:33;;;;;;;3.07;1.47;;;;;;;;;;10362724;28;20393;-79
2021/04/11 08:41:46;;;;;;;1.93;1.30;;;;;;;;;;10192591;28;20738;-79
2021/04/11 08:46:56;;;;;;;3.03;1.40;;;;;;;;;;10329450;28;20240;-81
2021/04/11 08:52:03;;;;;;;3.53;1.50;;;;;;;;;;10361851;28;20212;-80
2021/04/11 08:57:11;;;;;;;2.93;1.40;;;;;;;;;;10354583;28;20216;-83
2021/04/11 09:02:22;;;;;;;3.43;1.43;;;;;;;;;;10354037;28;23439;-83
2021/04/11 09:07:33;;;;;;;3.93;1.50;;;;;;;;;;10362076;28;20240;-80
2021/04/11 09:12:47;;;;;;;3.33;1.13;;;;;;;;;;10364320;28;20556;-79
2021/04/11 09:18:03;;;;;;;2.67;1.40;;;;;;;;;;10365321;28;20957;-80
2021/04/11 09:23:20;;;;;;;3.50;1.40;;;;;;;;;;10363804;28;20254;-81
2021/04/11 09:28:43;;;;;;;4.53;1.60;;;;;;;;;;10376030;28;20303;-80
2021/04/11 09:34:14;;;;;;;3.37;1.60;;;;;;;;;;10369060;28;22704;-79
2021/04/11 09:39:23;;;;;;;2.63;1.27;;;;;;;;;;10370339;28;20241;-81
2021/04/11 09:44:31;;;;;;;4.77;1.57;;;;;;;;;;10361899;28;20239;-79
2021/04/11 09:49:54;;;;;;;2.67;1.40;;;;;;;;;;10375403;28;20482;-79
2021/04/11 09:55:01;;;;;;;5.37;1.90;;;;;;;;;;10362560;28;20216;-80
2021/04/11 10:00:18;;;;;;;6.20;2.03;;;;;;;;;;10368901;28;20247;-80
2021/04/11 10:05:25;;;;;;;9.70;2.70;;;;;;;;;;10370084;28;20248;-80
2021/04/11 10:10:36;;;;;;;7.77;3.10;;;;;;;;;;10371265;28;20213;-82
2021/04/11 10:15:40;;;;;;;4.80;2.40;;;;;;;;;;10366232;28;20226;-81
2021/04/11 10:20:48;;;;;;;5.10;1.90;;;;;;;;;;10368679;28;20212;-81
2021/04/11 10:25:53;;;;;;;5.87;1.90;;;;;;;;;;10358362;28;20245;-79
2021/04/11 10:31:01;;;;;;;7.83;2.43;;;;;;;;;;10363403;28;20791;-80
2021/04/11 10:36:06;;;;;;;6.20;2.17;;;;;;;;;;10368050;28;20209;-80
2021/04/11 10:41:12;;;;;;;6.53;2.60;;;;;;;;;;10367843;28;20219;-79
2021/04/11 10:46:18;;;;;;;3.80;1.83;;;;;;;;;;10367545;28;20609;-82
2021/04/11 10:51:30;;;;;;;5.57;2.30;;;;;;;;;;10355591;28;20220;-80
2021/04/11 10:56:37;;;;;;;4.43;2.27;;;;;;;;;;10349390;28;20690;-82
2021/04/11 11:01:58;;;;;;;2.97;1.60;;;;;;;;;;10353129;28;20248;-79
2021/04/11 11:07:18;;;;;;;3.50;1.33;;;;;;;;;;10346946;28;20243;-80
2021/04/11 11:12:34;;;;;;;3.23;1.30;;;;;;;;;;10353569;28;20216;-78
2021/04/11 11:17:58;;;;;;;2.63;1.30;;;;;;;;;;10358327;28;20233;-79
2021/04/11 11:23:06;;;;;;;4.43;1.50;;;;;;;;;;10352174;28;20508;-80
2021/04/11 11:28:27;;;;;;;3.30;1.50;;;;;;;;;;10360655;28;20240;-79
2021/04/11 11:33:35;;;;;;;3.63;2.10;;;;;;;;;;10363023;28;20216;-79
2021/04/11 11:38:42;;;;;;;4.67;1.90;;;;;;;;;;10356595;28;20713;-81
2021/04/11 11:43:51;;;;;;;3.50;1.67;;;;;;;;;;10365496;28;20272;-80
2021/04/11 11:48:58;;;;;;;2.77;1.70;;;;;;;;;;10535499;23;20230;-75
2021/04/11 11:54:04;;;;;;;7.30;3.03;;;;;;;;;;10451747;28;20361;-74
2021/04/11 11:59:10;;;;;;;3.77;2.10;;;;;;;;;;10424636;28;20737;-74
2021/04/11 12:04:29;;;;;;;5.60;2.37;;;;;;;;;;10480749;28;20602;-75
2021/04/11 12:09:35;;;;;;;5.77;2.63;;;;;;;;;;10425683;28;20524;-75
2021/04/11 12:14:40;;;;;;;4.67;1.93;;;;;;;;;;10473625;28;20218;-75
2021/04/11 12:19:45;;;;;;;2.53;1.33;;;;;;;;;;10477589;28;20215;-76
2021/04/11 12:24:55;;;;;;;4.13;1.87;;;;;;;;;;10475049;28;20355;-77
2021/04/11 12:29:58;;;;;;;2.23;1.30;;;;;;;;;;10474672;28;20211;-76
2021/04/11 12:35:09;;;;;;;2.63;1.10;;;;;;;;;;10469084;28;20273;-76
2021/04/11 12:40:19;;;;;;;3.20;1.60;;;;;;;;;;10464832;28;20218;-76
2021/04/11 12:45:24;;;;;;;4.03;1.50;;;;;;;;;;10432108;28;20491;-77
2021/04/11 12:50:29;;;;;;;3.73;1.20;;;;;;;;;;10457612;28;20949;-76
2021/04/11 12:55:33;;;;;;;3.27;1.40;;;;;;;;;;10466623;28;20223;-75
2021/04/11 13:00:38;;;;;;;2.03;1.10;;;;;;;;;;10466726;28;20349;-74
2021/04/11 13:05:42;;;;;;;1.60;1.30;;;;;;;;;;10469747;28;20245;-75
2021/04/11 13:10:59;;;;;;;3.80;1.53;;;;;;;;;;10461872;28;20207;-75
2021/04/11 13:16:05;;;;;;;2.87;1.10;;;;;;;;;;10452690;28;20473;-73
2021/04/11 13:21:09;;;;;;;4.27;1.80;;;;;;;;;;10468064;28;20215;-75
2021/04/11 13:26:13;;;;;;;4.40;1.50;;;;;;;;;;10464960;28;20489;-74
2021/04/11 13:31:20;;;;;;;3.57;1.33;;;;;;;;;;10468707;28;20206;-76
2021/04/11 13:36:26;;;;;;;7.53;2.53;;;;;;;;;;10469736;28;20597;-76
2021/04/11 13:41:37;;;;;;;6.50;2.30;;;;;;;;;;10464095;28;20199;-77
2021/04/11 13:46:46;;;;;;;3.93;2.03;;;;;;;;;;10468284;28;20238;-77
2021/04/11 13:51:52;;;;;;;4.80;2.37;;;;;;;;;;10458666;28;20217;-76
2021/04/11 13:56:59;;;;;;;5.70;2.33;;;;;;;;;;10799934;22;20250;-77
2021/04/11 14:02:10;;;;;;;4.77;1.93;;;;;;;;;;10399184;28;20239;-77
2021/04/11 14:07:16;;;;;;;3.43;1.57;;;;;;;;;;10404008;28;20238;-77
2021/04/11 14:12:20;;;;;;;5.93;2.90;;;;;;;;;;10598004;22;20247;-76
2021/04/11 14:17:25;;;;;;;3.90;1.80;;;;;;;;;;10410529;28;20223;-74
2021/04/11 14:22:31;;;;;;;2.90;1.50;;;;;;;;;;10431049;28;20655;-76
2021/04/11 14:27:37;;;;;;;3.80;1.70;;;;;;;;;;10428215;28;20242;-75
2021/04/11 14:32:43;;;;;;;2.53;1.40;;;;;;;;;;10436565;28;20298;-76
2021/04/11 14:37:48;;;;;;;2.93;1.97;;;;;;;;;;10434255;28;20212;-76
2021/04/11 14:42:53;;;;;;;3.93;1.80;;;;;;;;;;10424795;28;20854;-76
2021/04/11 14:47:58;;;;;;;2.00;1.30;;;;;;;;;;10433521;28;20239;-76
2021/04/11 14:53:03;;;;;;;3.93;1.83;;;;;;;;;;10431933;28;20214;-77
2021/04/11 14:58:11;;;;;;;3.80;1.67;;;;;;;;;;10422020;28;20215;-76
2021/04/11 15:03:24;;;;;;;4.43;1.40;;;;;;;;;;10393766;28;20382;-77
2021/04/11 15:08:31;;;;;;;2.47;1.30;;;;;;;;;;10399531;28;20236;-75
2021/04/11 15:13:53;;;;;;;3.93;1.60;;;;;;;;;;10423966;28;20600;-76
2021/04/11 15:19:04;;;;;;;6.33;1.60;;;;;;;;;;10818913;22;20354;-76
2021/04/11 15:24:10;;;;;;;3.27;1.70;;;;;;;;;;10390698;28;20224;-77
2021/04/11 15:29:14;;;;;;;3.03;1.60;;;;;;;;;;10391037;28;20214;-77
2021/04/11 15:34:24;;;;;;;3.10;1.57;;;;;;;;;;10389398;28;20621;-77
2021/04/11 15:39:28;;;;;;;2.67;1.57;;;;;;;;;;10392654;28;20584;-78
2021/04/11 15:44:40;;;;;;;2.53;1.30;;;;;;;;;;10393902;28;20235;-75
2021/04/11 15:49:45;;;;;;;1.80;1.03;;;;;;;;;;10395049;28;20295;-76
2021/04/11 15:54:47;;;;;;;4.20;1.67;;;;;;;;;;10395151;28;20561;-74
2021/04/11 16:00:15;;;;;;;3.37;1.70;;;;;;;;;;10397829;28;20242;-76
2021/04/11 16:05:20;;;;;;;3.10;1.50;;;;;;;;;;10407804;28;20231;-74
2021/04/11 16:10:24;;;;;;;3.87;1.40;;;;;;;;;;10411053;28;20390;-76
2021/04/11 16:15:32;;;;;;;4.53;1.37;;;;;;;;;;10405393;28;20219;-76
2021/04/11 16:20:37;;;;;;;2.37;1.20;;;;;;;;;;10413184;28;20226;-75
2021/04/11 16:25:42;;;;;;;3.10;1.30;;;;;;;;;;10415657;28;20934;-77
2021/04/11 16:30:54;;;;;;;3.33;1.20;;;;;;;;;;10416505;28;20735;-76
2021/04/11 16:36:01;;;;;;;5.87;1.40;;;;;;;;;;10411432;28;20216;-76
2021/04/11 16:41:10;;;;;;;3.17;1.30;;;;;;;;;;10413463;28;20211;-76
2021/04/11 16:46:16;;;;;;;3.47;1.47;;;;;;;;;;10408164;28;20240;-75
2021/04/11 16:51:22;;;;;;;5.23;1.50;;;;;;;;;;10412820;28;20713;-76
2021/04/11 16:56:26;;;;;;;4.37;1.80;;;;;;;;;;10410100;28;20562;-76
2021/04/11 17:01:40;;;;;;;3.60;1.53;;;;;;;;;;10412265;28;20240;-75
2021/04/11 17:06:56;;;;;;;3.30;1.70;;;;;;;;;;10400597;28;20247;-78
2021/04/11 17:12:02;;;;;;;3.30;1.60;;;;;;;;;;10403118;28;20634;-76
2021/04/11 17:17:07;;;;;;;2.73;1.50;;;;;;;;;;10407480;28;20208;-75
2021/04/11 17:22:11;;;;;;;3.73;1.73;;;;;;;;;;10414741;28;20653;-77
2021/04/11 17:27:24;;;;;;;3.30;1.53;;;;;;;;;;10409400;28;20299;-76
2021/04/11 17:32:31;;;;;;;2.97;1.50;;;;;;;;;;10411220;28;20216;-76
2021/04/11 17:37:36;;;;;;;2.87;1.30;;;;;;;;;;10406370;28;20313;-77
2021/04/11 17:43:10;;;;;;;4.17;1.30;;;;;;;;;;10411810;28;20215;-76
2021/04/11 17:48:17;;;;;;;2.57;1.30;;;;;;;;;;10390954;28;20246;-74
2021/04/11 17:53:25;;;;;;;3.53;1.57;;;;;;;;;;10410196;28;20218;-76
2021/04/11 17:58:38;;;;;;;3.97;1.60;;;;;;;;;;10410420;28;20703;-75
2021/04/11 18:03:45;;;;;;;5.53;2.00;;;;;;;;;;10414437;28;20669;-75
2021/04/11 18:08:52;;;;;;;2.73;1.50;;;;;;;;;;10406565;28;20231;-74
2021/04/11 18:13:58;;;;;;;3.73;1.60;;;;;;;;;;10411592;28;20228;-76
2021/04/11 18:19:16;;;;;;;5.70;1.60;;;;;;;;;;10379238;28;20230;-75
2021/04/11 18:24:22;;;;;;;4.43;1.57;;;;;;;;;;10412231;28;20216;-76
2021/04/11 18:29:26;;;;;;;4.93;1.70;;;;;;;;;;10405264;28;20216;-73
2021/04/11 18:34:31;;;;;;;2.87;1.60;;;;;;;;;;10413421;28;20250;-75
2021/04/11 18:39:40;;;;;;;4.73;1.77;;;;;;;;;;10403144;28;20211;-76
2021/04/11 18:44:47;;;;;;;5.53;1.80;;;;;;;;;;10409032;28;20236;-76
2021/04/11 18:49:58;;;;;;;3.47;1.60;;;;;;;;;;10406015;28;20226;-76
2021/04/11 18:55:02;;;;;;;4.53;1.90;;;;;;;;;;10407523;28;20219;-76
2021/04/11 19:00:15;;;;;;;4.43;2.00;;;;;;;;;;10407301;28;20330;-76
2021/04/11 19:05:21;;;;;;;5.30;2.00;;;;;;;;;;10415458;28;20266;-76
2021/04/11 19:10:29;;;;;;;3.90;1.87;;;;;;;;;;10411051;28;20220;-75
2021/04/11 19:15:36;;;;;;;4.13;1.70;;;;;;;;;;10408923;28;20719;-76
2021/04/11 19:20:40;;;;;;;4.13;1.73;;;;;;;;;;10408522;28;20763;-76
2021/04/11 19:25:49;;;;;;;4.10;1.77;;;;;;;;;;10413440;28;20242;-76
2021/04/11 19:31:19;;;;;;;4.27;1.97;;;;;;;;;;10398898;28;20736;-75
2021/04/11 19:36:41;;;;;;;4.87;1.97;;;;;;;;;;10419754;28;20217;-76
2021/04/11 19:42:01;;;;;;;5.17;1.90;;;;;;;;;;10401618;28;20244;-75
2021/04/11 19:47:13;;;;;;;4.70;2.00;;;;;;;;;;10403621;28;20222;-76
2021/04/11 19:52:38;;;;;;;8.40;1.90;;;;;;;;;;10402307;28;20216;-74
2021/04/11 19:57:57;;;;;;;7.97;3.10;;;;;;;;;;10405920;28;20235;-75
2021/04/11 20:03:20;;;;;;;5.53;2.30;;;;;;;;;;10413003;28;20247;-76
2021/04/11 20:08:26;;;;;;;4.87;1.90;;;;;;;;;;10417858;28;20265;-74
2021/04/11 20:13:46;;;;;;;5.73;1.83;;;;;;;;;;10409468;28;20223;-76
2021/04/11 20:18:56;;;;;;;6.00;2.10;;;;;;;;;;10403548;28;20231;-75
2021/04/11 20:24:04;;;;;;;3.97;1.53;;;;;;;;;;10412249;28;20292;-75
2021/04/11 20:29:19;;;;;;;6.23;2.10;;;;;;;;;;10407205;28;20215;-76
2021/04/11 20:34:26;;;;;;;3.77;1.70;;;;;;;;;;10406006;28;20223;-75
2021/04/11 20:39:39;;;;;;;4.77;2.00;;;;;;;;;;10400238;28;20603;-76
2021/04/11 20:44:47;;;;;;;4.43;2.00;;;;;;;;;;10392080;28;20212;-77
2021/04/11 20:50:08;;;;;;;4.23;1.83;;;;;;;;;;10398780;28;20215;-75
2021/04/11 20:55:14;;;;;;;5.20;2.20;;;;;;;;;;10395119;28;20243;-76
2021/04/11 21:00:24;;;;;;;6.47;2.30;;;;;;;;;;10402182;28;20230;-75
2021/04/11 21:05:32;;;;;;;5.87;2.23;;;;;;;;;;10387218;28;20235;-75
2021/04/11 21:10:42;;;;;;;5.23;1.70;;;;;;;;;;10409039;28;20559;-76
2021/04/11 21:15:53;;;;;;;3.87;1.80;;;;;;;;;;10408194;28;20239;-75
2021/04/11 21:21:12;;;;;;;4.77;1.70;;;;;;;;;;10412866;28;20216;-74
2021/04/11 21:26:18;;;;;;;4.57;1.87;;;;;;;;;;10410600;28;20215;-76
2021/04/11 21:31:37;;;;;;;6.00;1.93;;;;;;;;;;10411846;28;20211;-75
2021/04/11 21:36:41;;;;;;;3.50;1.87;;;;;;;;;;10395028;28;20251;-75
2021/04/11 21:41:47;;;;;;;4.10;2.00;;;;;;;;;;10409839;28;22171;-76
2021/04/11 21:46:52;;;;;;;4.03;1.73;;;;;;;;;;10414527;28;20211;-75
2021/04/11 21:52:11;;;;;;;3.67;1.63;;;;;;;;;;10410589;28;20224;-74
2021/04/11 21:57:24;;;;;;;4.53;1.60;;;;;;;;;;10411667;28;20326;-76
2021/04/11 22:02:41;;;;;;;4.93;1.60;;;;;;;;;;10414636;28;20730;-74
2021/04/11 22:07:46;;;;;;;3.03;1.70;;;;;;;;;;10406992;28;20215;-75
2021/04/11 22:12:52;;;;;;;3.07;1.60;;;;;;;;;;10408284;28;20207;-75
2021/04/11 22:17:56;;;;;;;3.23;1.80;;;;;;;;;;10413076;28;21035;-74
2021/04/11 22:23:00;;;;;;;5.60;1.80;;;;;;;;;;10413855;28;20327;-75
2021/04/11 22:28:05;;;;;;;4.80;2.20;;;;;;;;;;10410862;28;20213;-74
2021/04/11 22:33:11;;;;;;;2.63;1.80;;;;;;;;;;10418608;28;20211;-76
2021/04/11 22:38:16;;;;;;;6.67;2.20;;;;;;;;;;10411728;28;20577;-74
2021/04/11 22:43:25;;;;;;;5.03;2.20;;;;;;;;;;10414730;28;20593;-74
2021/04/11 22:48:32;;;;;;;5.20;2.20;;;;;;;;;;10413338;28;20757;-74
2021/04/11 22:53:37;;;;;;;5.83;2.13;;;;;;;;;;10414656;28;20220;-75
2021/04/11 22:58:42;;;;;;;7.37;2.50;;;;;;;;;;10409396;28;20697;-74
2021/04/11 23:03:49;;;;;;;5.00;2.10;;;;;;;;;;10411498;28;20213;-76
2021/04/11 23:08:52;;;;;;;4.47;2.33;;;;;;;;;;10407452;28;20212;-76
2021/04/11 23:13:59;;;;;;;5.90;2.40;;;;;;;;;;10415167;28;20219;-73
2021/04/11 23:19:04;;;;;;;3.33;2.10;;;;;;;;;;10410398;28;20751;-75
2021/04/11 23:24:09;;;;;;;5.60;2.17;;;;;;;;;;10417489;28;20215;-74
2021/04/11 23:29:17;;;;;;;3.73;1.80;;;;;;;;;;10411602;28;20582;-74
2021/04/11 23:34:23;;;;;;;5.70;1.83;;;;;;;;;;10394876;28;20648;-75
2021/04/11 23:39:28;;;;;;;6.00;2.07;;;;;;;;;;10411795;28;20246;-74
2021/04/11 23:44:37;;;;;;;5.30;1.87;;;;;;;;;;10407029;28;20215;-75
2021/04/11 23:49:44;;;;;;;4.23;1.80;;;;;;;;;;10414494;28;20212;-75
2021/04/11 23:54:53;;;;;;;4.30;1.63;;;;;;;;;;10409486;28;20223;-75
2021/04/11 23:59:59;;;;;;;3.20;1.60;;;;;;;;;;10413401;28;20236;-75
